Time;durP1;ratioP1;P1;durP2;ratioP2;P2;SDS_P1;SDS_P2;PMS_P1;PMS_P2;Temp;Humidity;BMP_temperature;BMP_pressure;BME280_temperature;BME280_humidity;BME280_pressure;Samples;Min_cycle;Max_cycle;Signal;HPM_P1;HPM_P2
2021/05/13 00:00:21;;;;;;;2.60;1.93;;;27.10;46.10;;;;;;5126052;27;20443;-40
2021/05/13 00:02:52;;;;;;;2.50;1.40;;;27.00;46.90;;;;;;5130745;27;20487;-40
2021/05/13 00:05:24;;;;;;;3.27;1.67;;;27.00;47.40;;;;;;5136800;27;20450;-39
2021/05/13 00:07:54;;;;;;;1.60;1.50;;;26.90;46.50;;;;;;5123265;28;20457;-38
2021/05/13 00:10:25;;;;;;;2.80;1.60;;;26.90;47.50;;;;;;5125725;27;20507;-40
2021/05/13 00:12:59;;;;;;;1.90;1.50;;;26.90;46.60;;;;;;5122484;28;20477;-40
2021/05/13 00:15:33;;;;;;;3.30;1.80;;;26.80;47.00;;;;;;5130827;28;20438;-41
2021/05/13 00:18:03;;;;;;;1.90;1.77;;;26.70;47.60;;;;;;5123104;28;20438;-40
2021/05/13 00:20:37;;;;;;;2.47;1.80;;;26.70;48.40;;;;;;5129500;28;20448;-39
2021/05/13 00:23:07;;;;;;;1.90;1.80;;;26.70;49.00;;;;;;5137538;28;20481;-39
2021/05/13 00:25:38;;;;;;;1.90;1.80;;;26.50;48.70;;;;;;5123491;28;20452;-37
2021/05/13 00:28:08;;;;;;;2.07;1.73;;;26.40;48.80;;;;;;5122425;28;20445;-39
2021/05/13 00:30:39;;;;;;;2.83;1.90;;;26.40;49.00;;;;;;5126668;28;20481;-38
2021/05/13 00:33:10;;;;;;;2.70;1.80;;;26.30;48.40;;;;;;5141702;28;20441;-40
2021/05/13 00:35:42;;;;;;;2.20;1.80;;;26.10;48.80;;;;;;5143458;27;20443;-39
2021/05/13 00:38:12;;;;;;;2.47;1.47;;;26.10;49.50;;;;;;5141437;28;20498;-40
2021/05/13 00:40:43;;;;;;;1.70;1.60;;;26.00;49.20;;;;;;5142311;28;20448;-40
2021/05/13 00:43:13;;;;;;;1.70;1.60;;;25.90;49.50;;;;;;5141837;28;20487;-41
2021/05/13 00:45:44;;;;;;;1.80;1.70;;;25.80;50.60;;;;;;5144286;27;21028;-40
2021/05/13 00:48:16;;;;;;;1.90;1.60;;;25.80;50.90;;;;;;5143316;28;20429;-39
2021/05/13 00:50:48;;;;;;;2.40;2.13;;;25.70;51.30;;;;;;5142596;28;20513;-40
2021/05/13 00:53:19;;;;;;;2.00;1.90;;;25.60;51.60;;;;;;5141899;28;20533;-40
2021/05/13 00:55:52;;;;;;;2.63;2.43;;;25.40;52.00;;;;;;5141398;28;20448;-40
2021/05/13 00:58:25;;;;;;;3.50;2.10;;;25.50;51.80;;;;;;5141403;28;20452;-40
2021/05/13 01:01:05;;;;;;;2.83;2.17;;;25.40;51.80;;;;;;5142634;27;20448;-40
2021/05/13 01:03:36;;;;;;;2.83;2.37;;;25.30;51.60;;;;;;5146643;27;20479;-39
2021/05/13 01:06:11;;;;;;;1.93;1.60;;;25.20;52.10;;;;;;5131182;27;20490;-41
2021/05/13 01:08:43;;;;;;;2.50;2.30;;;25.20;52.40;;;;;;5146250;27;20448;-40
2021/05/13 01:11:14;;;;;;;3.43;1.80;;;25.20;53.00;;;;;;5144646;27;20460;-39
2021/05/13 01:14:02;;;;;;;2.20;2.00;;;25.10;53.80;;;;;;5143914;27;20512;-39
2021/05/13 01:16:44;;;;;;;5.20;2.90;;;25.00;54.60;;;;;;5145902;27;20449;-40
2021/05/13 01:19:16;;;;;;;2.10;1.90;;;24.90;54.80;;;;;;5140160;27;20472;-39
2021/05/13 01:21:48;;;;;;;3.53;2.00;;;24.80;54.50;;;;;;5145464;27;20448;-40
2021/05/13 01:24:18;;;;;;;2.30;2.03;;;24.70;54.80;;;;;;5141410;27;20514;-40
2021/05/13 01:26:50;;;;;;;1.77;1.67;;;24.60;54.80;;;;;;5143487;27;20448;-40
2021/05/13 01:29:23;;;;;;;2.30;1.87;;;24.60;53.50;;;;;;5145838;27;20540;-40
2021/05/13 01:31:54;;;;;;;2.60;2.00;;;24.50;54.30;;;;;;5143895;27;20448;-40
2021/05/13 01:34:25;;;;;;;2.03;1.70;;;24.50;54.00;;;;;;5140105;27;20494;-39
2021/05/13 01:36:56;;;;;;;3.43;2.27;;;24.50;54.20;;;;;;5142161;27;20449;-40
2021/05/13 01:39:27;;;;;;;2.13;1.90;;;24.40;54.20;;;;;;5139858;27;20461;-40
2021/05/13 01:41:58;;;;;;;1.90;1.80;;;24.30;55.20;;;;;;5139502;27;20510;-38
2021/05/13 01:44:29;;;;;;;2.63;2.00;;;24.30;55.70;;;;;;5140387;27;20500;-40
2021/05/13 01:47:00;;;;;;;2.60;2.10;;;24.20;55.00;;;;;;5146173;27;20468;-40
2021/05/13 01:49:33;;;;;;;2.50;2.27;;;24.20;55.70;;;;;;5146211;27;20548;-38
2021/05/13 01:52:05;;;;;;;2.33;2.10;;;24.10;55.90;;;;;;5145219;27;20475;-39
2021/05/13 01:54:36;;;;;;;2.47;2.30;;;24.00;56.60;;;;;;5136792;27;20466;-39
2021/05/13 01:57:08;;;;;;;2.70;2.00;;;23.90;57.30;;;;;;5139593;27;20449;-39
2021/05/13 01:59:39;;;;;;;2.17;1.97;;;23.80;56.30;;;;;;5146325;27;20484;-40
2021/05/13 02:02:10;;;;;;;1.90;1.80;;;23.80;56.60;;;;;;5144872;27;20456;-37
2021/05/13 02:04:41;;;;;;;2.63;2.43;;;23.80;56.90;;;;;;5146255;27;20492;-40
2021/05/13 02:07:12;;;;;;;2.33;1.90;;;23.80;57.80;;;;;;5146080;27;20444;-39
2021/05/13 02:09:43;;;;;;;1.90;1.80;;;23.70;59.10;;;;;;5144671;27;20453;-39
2021/05/13 02:12:13;;;;;;;4.70;1.97;;;23.60;60.30;;;;;;5130299;27;20477;-39
2021/05/13 02:14:44;;;;;;;2.93;2.17;;;23.40;61.10;;;;;;5145804;27;20456;-39
2021/05/13 02:17:14;;;;;;;1.87;1.77;;;23.40;60.50;;;;;;5145554;27;20482;-39
2021/05/13 02:19:45;;;;;;;2.30;2.10;;;23.40;59.80;;;;;;5145843;27;20453;-39
2021/05/13 02:22:16;;;;;;;1.87;1.77;;;23.30;59.90;;;;;;5143614;27;20851;-39
2021/05/13 02:24:47;;;;;;;2.00;1.90;;;23.20;60.60;;;;;;5137972;27;20487;-39
2021/05/13 02:27:17;;;;;;;2.77;2.13;;;23.20;61.40;;;;;;5144433;27;20495;-37
2021/05/13 02:29:47;;;;;;;1.93;1.83;;;23.20;61.80;;;;;;5145984;27;20867;-39
2021/05/13 02:32:18;;;;;;;2.33;2.10;;;23.10;62.60;;;;;;5144797;27;20516;-38
2021/05/13 02:34:48;;;;;;;2.23;1.87;;;23.00;63.00;;;;;;5145544;27;20432;-39
2021/05/13 02:37:20;;;;;;;2.03;1.83;;;23.00;63.60;;;;;;5145335;27;20497;-38
2021/05/13 02:39:51;;;;;;;2.20;1.70;;;22.90;64.20;;;;;;5144988;27;20448;-39
2021/05/13 02:42:22;;;;;;;4.67;1.87;;;22.90;64.90;;;;;;5144001;27;20445;-39
2021/05/13 02:44:52;;;;;;;3.30;1.90;;;22.80;65.50;;;;;;5144538;27;20463;-40
2021/05/13 02:47:23;;;;;;;3.03;1.77;;;22.70;65.50;;;;;;5144419;27;20445;-37
2021/05/13 02:49:54;;;;;;;2.10;1.90;;;22.60;65.60;;;;;;5145150;27;20452;-37
2021/05/13 02:52:26;;;;;;;2.77;1.70;;;22.50;66.00;;;;;;5144458;27;20424;-38
2021/05/13 02:54:56;;;;;;;2.50;1.57;;;22.40;66.30;;;;;;5142263;27;20463;-38
2021/05/13 02:57:28;;;;;;;4.73;1.90;;;22.30;66.70;;;;;;5142641;27;20419;-36
2021/05/13 03:00:03;;;;;;;1.50;1.40;;;22.30;67.00;;;;;;5144220;27;21207;-37
2021/05/13 03:02:34;;;;;;;2.97;1.40;;;22.20;68.60;;;;;;5143319;27;20441;-37
2021/05/13 03:05:05;;;;;;;2.53;1.73;;;22.10;68.00;;;;;;5144801;27;20591;-38
2021/05/13 03:07:42;;;;;;;2.80;1.50;;;22.00;68.50;;;;;;5140844;27;20458;-39
2021/05/13 03:10:17;;;;;;;4.20;1.90;;;21.90;68.50;;;;;;5143154;27;20449;-38
2021/05/13 03:12:49;;;;;;;2.00;1.90;;;21.80;69.40;;;;;;5137646;27;20484;-38
2021/05/13 03:15:20;;;;;;;1.50;1.40;;;21.70;69.20;;;;;;5144215;27;20424;-39
2021/05/13 03:17:51;;;;;;;1.87;1.57;;;21.60;69.70;;;;;;5144343;27;20419;-38
2021/05/13 03:20:26;;;;;;;1.60;1.50;;;21.50;70.10;;;;;;5144485;27;20428;-36
2021/05/13 03:22:58;;;;;;;4.20;1.77;;;21.30;70.70;;;;;;5144282;27;20489;-36
2021/05/13 03:25:30;;;;;;;3.33;1.67;;;21.30;71.10;;;;;;5144162;27;20423;-38
2021/05/13 03:30:54;;;;;;;1.20;1.10;;;21.10;72.40;;;;;;5136423;27;20451;-38
2021/05/13 03:33:25;;;;;;;1.70;1.27;;;21.00;72.70;;;;;;5139605;27;20485;-36
2021/05/13 03:35:55;;;;;;;4.67;1.60;;;20.90;73.20;;;;;;5138657;27;20424;-38
2021/05/13 03:38:28;;;;;;;1.47;1.37;;;20.80;73.60;;;;;;5141314;27;20860;-39
2021/05/13 03:40:59;;;;;;;2.53;1.40;;;20.70;73.60;;;;;;5140047;27;20452;-40
2021/05/13 03:43:29;;;;;;;2.50;1.50;;;20.60;74.10;;;;;;5142251;27;20443;-38
2021/05/13 03:46:00;;;;;;;1.23;1.13;;;20.50;74.70;;;;;;5141180;27;20974;-38
2021/05/13 03:48:30;;;;;;;2.50;1.40;;;20.40;74.50;;;;;;5142598;27;20442;-40
2021/05/13 03:51:01;;;;;;;2.13;1.40;;;20.30;75.40;;;;;;5140924;27;20449;-40
2021/05/13 03:53:38;;;;;;;1.80;1.30;;;20.20;75.30;;;;;;5124376;27;20435;-40
2021/05/13 03:56:17;;;;;;;3.80;1.67;;;20.10;75.30;;;;;;5123954;27;20435;-40
2021/05/13 03:58:55;;;;;;;0.93;0.93;;;20.10;75.60;;;;;;5131191;27;20539;-39
2021/05/13 04:01:48;;;;;;;2.13;1.40;;;20.00;76.50;;;;;;5135083;27;20497;-39
2021/05/13 04:04:30;;;;;;;1.23;1.13;;;19.90;76.70;;;;;;5142757;27;20458;-38
2021/05/13 04:07:11;;;;;;;1.83;1.63;;;19.80;76.80;;;;;;5141100;27;20444;-40
2021/05/13 04:09:48;;;;;;;3.03;1.63;;;19.70;77.00;;;;;;5141205;27;20461;-39
2021/05/13 04:12:43;;;;;;;;;;;;;;;;;;;;;
2021/05/13 04:15:22;;;;;;;2.93;1.53;;;19.70;77.40;;;;;;5103278;28;20588;-40
2021/05/13 04:17:52;;;;;;;2.80;1.60;;;19.70;77.50;;;;;;5133121;28;20448;-39
2021/05/13 04:20:23;;;;;;;1.63;1.10;;;19.60;77.30;;;;;;5142062;28;20565;-39
2021/05/13 04:22:54;;;;;;;1.67;1.33;;;19.50;78.00;;;;;;5142065;28;20789;-39
2021/05/13 04:25:25;;;;;;;2.10;1.90;;;19.40;78.50;;;;;;5141923;28;20451;-39
2021/05/13 04:27:56;;;;;;;2.10;1.60;;;19.40;78.80;;;;;;5142485;28;20424;-39
2021/05/13 04:30:27;;;;;;;1.83;1.50;;;19.30;79.40;;;;;;5143878;28;20428;-39
2021/05/13 04:32:57;;;;;;;1.37;1.23;;;19.20;79.20;;;;;;5142327;28;20415;-37
2021/05/13 04:35:28;;;;;;;1.83;1.50;;;19.10;79.30;;;;;;5142670;27;20429;-39
2021/05/13 04:37:58;;;;;;;2.70;1.37;;;19.10;79.20;;;;;;5146581;27;20440;-39
2021/05/13 04:40:30;;;;;;;3.10;1.70;;;19.10;79.70;;;;;;5146643;27;20502;-40
2021/05/13 04:43:00;;;;;;;1.77;1.43;;;19.00;80.90;;;;;;5145506;27;20457;-40
2021/05/13 04:45:32;;;;;;;2.27;1.53;;;18.90;80.90;;;;;;5147827;27;20474;-39
2021/05/13 04:48:08;;;;;;;2.10;1.30;;;18.80;80.60;;;;;;5146805;27;20524;-40
2021/05/13 04:50:38;;;;;;;1.63;1.40;;;18.80;80.80;;;;;;5147256;27;20431;-40
2021/05/13 04:53:09;;;;;;;2.53;1.50;;;18.80;80.60;;;;;;5146512;27;20474;-39
2021/05/13 04:55:42;;;;;;;1.67;1.27;;;18.70;81.00;;;;;;5138778;27;20506;-40
2021/05/13 04:58:29;;;;;;;1.50;1.40;;;18.60;81.40;;;;;;5145118;27;20893;-37
2021/05/13 05:01:23;;;;;;;1.43;1.20;;;18.60;81.60;;;;;;5146974;27;20452;-39
2021/05/13 05:03:56;;;;;;;1.73;1.30;;;18.50;82.10;;;;;;5146759;27;20541;-36
2021/05/13 05:06:32;;;;;;;4.57;1.83;;;18.40;83.50;;;;;;5146488;27;20458;-40
2021/05/13 05:09:23;;;;;;;2.17;1.20;;;18.30;83.30;;;;;;5146542;27;20520;-39
2021/05/13 05:11:55;;;;;;;1.80;1.70;;;18.20;84.20;;;;;;5144794;27;20834;-39
2021/05/13 05:14:38;;;;;;;3.30;1.27;;;18.20;84.80;;;;;;5146001;27;20448;-38
2021/05/13 05:17:24;;;;;;;1.50;1.40;;;18.20;85.50;;;;;;5145487;27;20528;-37
2021/05/13 05:20:00;;;;;;;4.00;1.83;;;18.10;86.10;;;;;;5143941;27;20489;-39
2021/05/13 05:22:36;;;;;;;1.63;1.23;;;18.00;87.20;;;;;;5146240;27;20919;-40
2021/05/13 05:25:10;;;;;;;4.13;1.40;;;17.90;88.10;;;;;;5146609;27;20513;-39
2021/05/13 05:27:48;;;;;;;2.10;1.30;;;17.90;89.10;;;;;;5145858;27;20455;-39
2021/05/13 05:30:21;;;;;;;2.23;1.50;;;17.80;89.70;;;;;;5146190;27;20448;-39
2021/05/13 05:32:52;;;;;;;2.23;1.30;;;17.70;90.30;;;;;;5144594;27;20452;-38
2021/05/13 05:35:22;;;;;;;2.30;1.37;;;17.70;90.70;;;;;;5144870;27;20494;-37
2021/05/13 05:37:55;;;;;;;4.90;1.67;;;17.60;91.00;;;;;;5146454;27;20459;-37
2021/05/13 05:40:44;;;;;;;1.70;1.60;;;17.60;91.40;;;;;;5145742;27;20549;-39
2021/05/13 05:43:18;;;;;;;2.60;1.40;;;17.50;91.80;;;;;;5144819;27;20545;-38
2021/05/13 05:45:52;;;;;;;2.03;1.80;;;17.40;92.40;;;;;;5145881;27;20484;-40
2021/05/13 05:51:19;;;;;;;2.13;1.47;;;17.30;93.40;;;;;;5133519;27;20505;-39
2021/05/13 05:53:57;;;;;;;1.87;1.50;;;17.20;94.00;;;;;;5135675;27;20465;-39
2021/05/13 05:56:40;;;;;;;;;;;;;;;;;;;;;
2021/05/13 05:59:58;;;;;;;1.93;1.47;;;17.10;94.70;;;;;;5143337;27;20540;-39
2021/05/13 06:02:39;;;;;;;1.67;1.50;;;17.00;95.30;;;;;;5145022;27;20472;-39
2021/05/13 06:05:24;;;;;;;1.37;1.27;;;16.90;95.90;;;;;;5145278;27;20484;-38
2021/05/13 06:08:13;;;;;;;2.00;1.60;;;16.80;96.50;;;;;;5128455;27;20456;-38
2021/05/13 06:10:57;;;;;;;;;;;;;;;;;;;;;
2021/05/13 06:13:48;;;;;;;2.23;1.50;;;16.70;97.70;;;;;;5099733;27;20911;-39
2021/05/13 06:16:25;;;;;;;2.33;1.73;;;16.70;98.20;;;;;;5145491;27;20598;-36
2021/05/13 06:19:00;;;;;;;1.40;1.30;;;16.60;98.50;;;;;;5143740;27;20449;-37
2021/05/13 06:21:39;;;;;;;3.17;1.50;;;16.60;99.00;;;;;;5144613;27;20448;-38
2021/05/13 06:24:29;;;;;;;4.53;1.60;;;16.50;99.40;;;;;;5128413;27;20569;-39
2021/05/13 06:27:04;;;;;;;1.67;1.57;;;16.50;99.80;;;;;;5144101;27;20460;-39
2021/05/13 06:29:48;;;;;;;3.53;1.73;;;16.50;99.90;;;;;;5145194;27;20772;-39
2021/05/13 06:32:27;;;;;;;1.63;1.53;;;16.40;99.90;;;;;;5143747;27;20471;-39
2021/05/13 06:35:10;;;;;;;1.87;1.60;;;16.30;99.90;;;;;;5144801;27;20463;-39
2021/05/13 06:37:48;;;;;;;4.27;2.20;;;16.30;99.90;;;;;;5145502;27;20504;-40
2021/05/13 06:40:32;;;;;;;5.43;1.80;;;16.20;99.90;;;;;;5144729;27;20441;-39
2021/05/13 06:43:25;;;;;;;3.30;1.70;;;16.20;99.90;;;;;;5132035;27;20451;-39
2021/05/13 06:46:43;;;;;;;2.93;1.43;;;16.10;99.90;;;;;;5143549;27;20500;-37
2021/05/13 06:49:18;;;;;;;3.37;1.90;;;16.10;99.90;;;;;;5144998;27;20477;-40
2021/05/13 06:51:48;;;;;;;2.30;1.50;;;16.10;99.90;;;;;;5144166;27;20469;-38
2021/05/13 06:54:19;;;;;;;1.67;1.40;;;16.10;99.90;;;;;;5128556;27;20510;-39
2021/05/13 06:56:49;;;;;;;1.97;1.50;;;16.00;99.90;;;;;;5133741;27;20488;-37
2021/05/13 06:59:20;;;;;;;1.87;1.70;;;16.00;99.90;;;;;;5144638;27;20461;-38
2021/05/13 07:01:50;;;;;;;2.17;1.50;;;15.90;99.90;;;;;;5143777;27;20536;-38
2021/05/13 07:04:22;;;;;;;1.90;1.50;;;15.90;99.90;;;;;;5141423;27;20473;-39
2021/05/13 07:06:53;;;;;;;3.23;1.50;;;15.80;99.90;;;;;;5143915;27;20501;-38
2021/05/13 07:09:24;;;;;;;1.53;1.43;;;15.80;99.90;;;;;;5144715;27;20495;-38
2021/05/13 07:11:54;;;;;;;1.70;1.60;;;15.70;99.90;;;;;;5143118;27;20433;-38
2021/05/13 07:14:25;;;;;;;2.53;1.63;;;15.70;99.90;;;;;;5143439;27;20502;-38
2021/05/13 07:16:55;;;;;;;1.87;1.77;;;15.60;99.90;;;;;;5143902;27;20452;-38
2021/05/13 07:19:28;;;;;;;3.40;2.17;;;15.60;99.90;;;;;;5144277;27;20524;-39
2021/05/13 07:22:00;;;;;;;2.10;1.37;;;15.60;99.90;;;;;;5143288;27;20511;-38
2021/05/13 07:24:31;;;;;;;2.07;1.87;;;15.50;99.90;;;;;;5144107;27;20563;-37
2021/05/13 07:27:01;;;;;;;3.00;1.70;;;15.50;99.90;;;;;;5143201;27;20449;-38
2021/05/13 07:29:31;;;;;;;2.03;1.83;;;15.50;99.90;;;;;;5144490;27;20469;-37
2021/05/13 07:32:02;;;;;;;2.00;1.60;;;15.50;99.90;;;;;;5143196;27;20512;-40
2021/05/13 07:34:34;;;;;;;1.30;1.20;;;15.40;99.90;;;;;;5143975;27;20474;-38
2021/05/13 07:37:04;;;;;;;1.47;1.27;;;15.30;99.90;;;;;;5143542;27;20449;-38
2021/05/13 07:39:35;;;;;;;1.67;1.40;;;15.30;99.90;;;;;;5143853;27;20456;-38
2021/05/13 07:42:05;;;;;;;2.50;1.60;;;15.30;99.90;;;;;;5142842;27;20446;-37
2021/05/13 07:44:36;;;;;;;3.30;1.40;;;15.30;99.90;;;;;;5143436;27;20544;-36
2021/05/13 07:47:27;;;;;;;2.10;1.50;;;15.20;99.90;;;;;;5143532;27;20527;-38
2021/05/13 07:49:59;;;;;;;2.30;1.47;;;15.20;99.90;;;;;;5143201;27;20469;-39
2021/05/13 07:52:29;;;;;;;1.60;1.20;;;15.20;99.90;;;;;;5142837;27;20469;-36
2021/05/13 07:54:59;;;;;;;1.90;1.60;;;15.20;99.90;;;;;;5141077;27;20528;-38
2021/05/13 07:57:30;;;;;;;1.50;1.40;;;15.20;99.90;;;;;;5133724;27;20444;-34
2021/05/13 08:00:00;;;;;;;3.20;1.63;;;15.10;99.90;;;;;;5144071;27;20480;-38
2021/05/13 08:02:31;;;;;;;1.50;1.27;;;15.10;99.90;;;;;;5142447;27;20453;-40
2021/05/13 08:05:02;;;;;;;1.80;1.63;;;15.10;99.90;;;;;;5143300;27;20472;-36
2021/05/13 08:07:33;;;;;;;1.87;1.30;;;15.00;99.90;;;;;;5138410;27;20451;-36
2021/05/13 08:10:04;;;;;;;1.60;1.47;;;15.00;99.90;;;;;;5143605;27;20462;-39
2021/05/13 08:12:35;;;;;;;5.23;1.80;;;14.90;99.90;;;;;;5142316;27;20540;-38
2021/05/13 08:15:10;;;;;;;1.83;1.73;;;15.00;99.90;;;;;;5143921;27;20449;-38
2021/05/13 08:17:41;;;;;;;2.63;1.20;;;14.90;99.90;;;;;;5142576;28;20923;-39
2021/05/13 08:20:15;;;;;;;2.00;1.43;;;14.90;99.90;;;;;;5142989;28;20453;-38
2021/05/13 08:22:46;;;;;;;3.57;1.60;;;14.90;99.90;;;;;;5138085;28;20880;-37
2021/05/13 08:25:19;;;;;;;2.73;1.43;;;14.90;99.90;;;;;;5143374;28;20488;-38
2021/05/13 08:27:50;;;;;;;2.07;1.60;;;14.90;99.90;;;;;;5142346;28;20487;-34
2021/05/13 08:30:22;;;;;;;3.87;1.93;;;14.80;99.90;;;;;;5143183;28;20527;-38
2021/05/13 08:32:52;;;;;;;1.70;1.60;;;14.80;99.90;;;;;;5143054;28;20544;-37
2021/05/13 08:35:24;;;;;;;1.50;1.40;;;14.70;99.90;;;;;;5143116;28;20464;-39
2021/05/13 08:37:54;;;;;;;3.20;1.63;;;14.70;99.90;;;;;;5142834;28;20493;-39
2021/05/13 08:40:25;;;;;;;2.87;1.40;;;14.70;99.90;;;;;;5143184;28;20508;-39
2021/05/13 08:42:55;;;;;;;3.57;1.67;;;14.70;99.90;;;;;;5142387;28;20896;-39
2021/05/13 08:45:27;;;;;;;2.30;1.47;;;14.60;99.90;;;;;;5143161;28;20516;-36
2021/05/13 08:47:58;;;;;;;1.10;1.00;;;14.60;99.90;;;;;;5142548;28;20435;-38
2021/05/13 08:50:29;;;;;;;1.40;1.30;;;14.60;99.90;;;;;;5143324;28;20448;-38
2021/05/13 08:53:05;;;;;;;1.87;1.17;;;14.50;99.90;;;;;;5141853;28;20843;-39
2021/05/13 08:55:35;;;;;;;2.43;1.60;;;14.50;99.90;;;;;;5137378;28;20560;-38
2021/05/13 08:58:08;;;;;;;1.40;1.30;;;14.40;99.90;;;;;;5142109;28;20543;-39
2021/05/13 09:00:51;;;;;;;2.20;1.30;;;14.40;99.90;;;;;;5143321;28;20509;-39
2021/05/13 09:03:37;;;;;;;1.40;1.30;;;14.40;99.90;;;;;;5142447;28;20472;-38
2021/05/13 09:06:12;;;;;;;1.60;1.50;;;14.40;99.90;;;;;;5142004;28;20651;-39
2021/05/13 09:08:42;;;;;;;1.87;1.30;;;14.40;99.90;;;;;;5142305;28;20452;-39
2021/05/13 09:11:14;;;;;;;2.60;1.57;;;14.30;99.90;;;;;;5142965;28;20940;-37
2021/05/13 09:13:48;;;;;;;3.43;1.90;;;14.20;99.90;;;;;;5141578;28;20514;-36
2021/05/13 09:16:29;;;;;;;3.13;2.60;;;14.30;99.90;;;;;;5143117;28;20441;-36
2021/05/13 09:19:00;;;;;;;2.30;1.80;;;14.30;99.90;;;;;;5142879;28;20437;-39
2021/05/13 09:21:32;;;;;;;4.13;1.90;;;14.20;99.90;;;;;;5142275;27;20445;-37
2021/05/13 09:24:02;;;;;;;2.53;1.50;;;14.20;99.90;;;;;;5146707;27;20457;-38
2021/05/13 09:26:33;;;;;;;5.23;2.03;;;14.20;99.90;;;;;;5145382;27;20846;-39
2021/05/13 09:29:10;;;;;;;2.17;1.90;;;14.10;99.90;;;;;;5146686;27;20543;-39
2021/05/13 09:31:42;;;;;;;1.90;1.27;;;14.00;99.90;;;;;;5146484;27;20439;-36
2021/05/13 09:34:15;;;;;;;1.83;1.33;;;14.00;99.90;;;;;;5147113;27;20441;-34
2021/05/13 09:36:46;;;;;;;1.87;1.40;;;13.90;99.90;;;;;;5144592;27;20441;-37
2021/05/13 09:39:24;;;;;;;4.37;1.90;;;14.00;99.90;;;;;;5146449;27;20533;-38
2021/05/13 09:42:01;;;;;;;1.53;1.10;;;13.90;99.90;;;;;;5145347;27;20441;-38
2021/05/13 09:44:34;;;;;;;1.70;1.23;;;13.80;99.90;;;;;;5144810;27;20476;-36
2021/05/13 09:47:16;;;;;;;1.33;1.23;;;13.70;99.90;;;;;;5145911;27;20556;-37
2021/05/13 09:50:05;;;;;;;2.90;1.53;;;13.70;99.90;;;;;;5146331;27;20449;-34
2021/05/13 09:52:48;;;;;;;1.40;1.30;;;13.80;99.90;;;;;;5145305;27;20756;-36
2021/05/13 09:55:26;;;;;;;1.73;1.40;;;13.60;99.90;;;;;;5140876;27;20632;-38
2021/05/13 09:58:00;;;;;;;1.53;1.37;;;13.60;99.90;;;;;;5143123;27;20453;-34
2021/05/13 10:00:39;;;;;;;1.33;1.17;;;13.50;99.90;;;;;;5145230;27;20499;-38
2021/05/13 10:03:12;;;;;;;1.50;1.40;;;13.50;99.90;;;;;;5137022;27;20529;-39
2021/05/13 10:05:44;;;;;;;1.50;1.40;;;13.50;99.90;;;;;;5145580;27;20577;-38
2021/05/13 10:08:17;;;;;;;4.53;1.40;;;13.50;99.90;;;;;;5145032;27;20466;-39
2021/05/13 10:10:48;;;;;;;1.50;1.37;;;13.40;99.90;;;;;;5146163;27;20472;-35
2021/05/13 10:13:20;;;;;;;1.53;1.30;;;13.40;99.90;;;;;;5144587;27;20448;-38
2021/05/13 10:15:51;;;;;;;1.60;1.50;;;13.40;99.90;;;;;;5144985;27;20801;-38
2021/05/13 10:18:25;;;;;;;1.60;1.43;;;13.40;99.90;;;;;;5144961;27;20460;-38
2021/05/13 10:21:02;;;;;;;3.40;1.60;;;13.40;99.90;;;;;;5145675;27;20476;-38
2021/05/13 10:23:37;;;;;;;1.40;1.30;;;13.40;99.90;;;;;;5145138;27;20439;-38
2021/05/13 10:26:08;;;;;;;1.70;1.37;;;13.30;99.90;;;;;;5145665;27;20468;-38
2021/05/13 10:28:40;;;;;;;3.40;1.67;;;13.40;99.90;;;;;;5144273;27;20449;-35
2021/05/13 10:31:10;;;;;;;2.10;1.70;;;13.40;99.90;;;;;;5144561;27;20536;-37
2021/05/13 10:33:49;;;;;;;2.73;1.73;;;13.30;99.90;;;;;;5144276;27;20449;-35
2021/05/13 10:36:24;;;;;;;1.53;1.43;;;13.40;99.90;;;;;;5144164;27;20476;-38
2021/05/13 10:38:56;;;;;;;1.53;1.43;;;13.40;99.90;;;;;;5144710;27;20445;-37
2021/05/13 10:41:41;;;;;;;2.67;1.57;;;13.30;99.90;;;;;;5144827;27;20463;-38
2021/05/13 10:44:37;;;;;;;2.23;1.20;;;13.30;99.90;;;;;;5144990;27;20796;-37
2021/05/13 10:47:08;;;;;;;1.73;1.50;;;13.30;99.90;;;;;;5144502;27;20496;-39
2021/05/13 10:49:49;;;;;;;2.47;1.40;;;13.20;99.90;;;;;;5144442;27;20449;-38
2021/05/13 10:52:38;;;;;;;1.53;1.30;;;13.20;99.90;;;;;;5144192;27;20448;-39
2021/05/13 10:55:12;;;;;;;3.70;1.50;;;13.10;99.90;;;;;;5140918;27;20918;-39
2021/05/13 10:57:51;;;;;;;1.60;1.30;;;13.10;99.90;;;;;;5135160;27;20482;-36
2021/05/13 11:00:26;;;;;;;1.57;1.27;;;13.10;99.90;;;;;;5137650;27;20463;-39
2021/05/13 11:02:57;;;;;;;2.40;1.70;;;13.00;99.90;;;;;;5144628;27;20440;-39
2021/05/13 11:05:45;;;;;;;1.93;1.73;;;13.00;99.90;;;;;;5144623;27;20544;-39
2021/05/13 11:08:47;;;;;;;2.17;1.30;;;13.00;99.90;;;;;;5143964;27;20452;-39
2021/05/13 11:11:18;;;;;;;2.50;1.73;;;13.00;99.90;;;;;;5143948;27;20452;-38
2021/05/13 11:13:51;;;;;;;2.77;2.30;;;12.90;99.90;;;;;;5144314;27;20478;-39
2021/05/13 11:16:46;;;;;;;1.93;1.70;;;12.90;99.90;;;;;;5144614;27;20441;-37
2021/05/13 11:19:21;;;;;;;2.80;1.67;;;12.90;99.90;;;;;;5143744;27;20449;-38
2021/05/13 11:22:02;;;;;;;1.70;1.57;;;12.90;99.90;;;;;;5140927;27;20467;-39
2021/05/13 11:24:35;;;;;;;2.80;1.53;;;12.80;99.90;;;;;;5129236;27;20771;-37
2021/05/13 11:27:08;;;;;;;3.00;1.37;;;12.70;99.90;;;;;;5144698;27;20488;-38
2021/05/13 11:29:50;;;;;;;2.10;1.90;;;12.70;99.90;;;;;;5143178;27;20514;-35
2021/05/13 11:32:21;;;;;;;2.00;1.80;;;12.60;99.90;;;;;;5143992;27;20501;-37
2021/05/13 11:35:11;;;;;;;3.33;1.70;;;12.60;99.90;;;;;;5144080;27;20498;-36
2021/05/13 11:37:44;;;;;;;2.03;1.60;;;12.60;99.90;;;;;;5144634;27;20445;-38
2021/05/13 11:40:31;;;;;;;1.87;1.77;;;12.60;99.90;;;;;;5144100;27;20448;-38
2021/05/13 11:43:33;;;;;;;1.60;1.50;;;12.60;99.90;;;;;;5144880;27;20436;-31
2021/05/13 11:46:06;;;;;;;2.50;2.03;;;12.60;99.90;;;;;;5144737;27;20508;-36
2021/05/13 11:48:38;;;;;;;1.90;1.50;;;12.50;99.90;;;;;;5143827;27;20820;-36
2021/05/13 11:51:11;;;;;;;2.27;2.07;;;12.50;99.90;;;;;;5143905;27;20475;-37
2021/05/13 11:53:42;;;;;;;1.93;1.77;;;12.50;99.90;;;;;;5127409;27;20478;-37
2021/05/13 11:56:14;;;;;;;2.27;2.07;;;12.50;99.90;;;;;;5144416;27;20501;-37
2021/05/13 11:58:47;;;;;;;2.10;2.00;;;12.50;99.90;;;;;;5143718;27;20441;-37
2021/05/13 12:01:26;;;;;;;2.20;1.97;;;12.40;99.90;;;;;;5143904;27;20440;-36
2021/05/13 12:04:01;;;;;;;2.10;1.90;;;12.30;99.90;;;;;;5133545;27;20995;-37
2021/05/13 12:06:45;;;;;;;1.80;1.70;;;12.30;99.90;;;;;;5143907;27;20484;-38
2021/05/13 12:09:16;;;;;;;2.20;2.00;;;12.30;99.90;;;;;;5139122;27;20448;-38
2021/05/13 12:11:48;;;;;;;3.07;1.83;;;12.20;99.90;;;;;;5144169;27;20453;-39
2021/05/13 12:14:24;;;;;;;2.63;1.73;;;12.10;99.90;;;;;;5141664;27;20456;-37
2021/05/13 12:16:55;;;;;;;1.50;1.40;;;12.10;99.90;;;;;;5144676;27;20441;-38
2021/05/13 12:19:27;;;;;;;2.20;2.00;;;12.20;99.90;;;;;;5142323;27;20445;-38
2021/05/13 12:21:59;;;;;;;2.03;1.83;;;12.20;99.90;;;;;;5137512;27;20449;-34
2021/05/13 12:24:30;;;;;;;2.00;1.70;;;12.00;99.90;;;;;;5143059;28;20472;-39
2021/05/13 12:27:01;;;;;;;3.30;2.10;;;12.10;99.90;;;;;;5143424;28;20533;-37
2021/05/13 12:29:34;;;;;;;3.67;2.30;;;12.10;99.90;;;;;;5142526;28;20452;-38
2021/05/13 12:32:06;;;;;;;3.60;1.87;;;12.00;99.90;;;;;;5144303;28;20449;-38
2021/05/13 12:34:38;;;;;;;2.40;2.20;;;12.00;99.90;;;;;;5142830;28;20452;-38
2021/05/13 12:37:10;;;;;;;4.43;2.07;;;12.00;99.90;;;;;;5143744;28;20718;-39
2021/05/13 12:39:41;;;;;;;2.60;2.07;;;12.00;99.90;;;;;;5143163;28;20453;-37
2021/05/13 12:42:25;;;;;;;2.90;2.30;;;11.90;99.90;;;;;;5143518;28;20449;-37
2021/05/13 12:45:15;;;;;;;2.75;2.05;;;11.90;99.90;;;;;;5142505;28;20908;-38
2021/05/13 12:47:55;;;;;;;3.03;2.43;;;11.90;99.90;;;;;;5143634;28;20226;-37
2021/05/13 12:50:26;;;;;;;4.88;2.45;;;11.90;99.90;;;;;;5142580;28;20944;-36
2021/05/13 12:53:12;;;;;;;2.53;2.08;;;11.90;99.90;;;;;;5142527;28;20195;-38
2021/05/13 12:55:44;;;;;;;2.58;2.03;;;11.90;99.90;;;;;;5143280;28;20198;-39
2021/05/13 12:58:16;;;;;;;3.83;2.33;;;11.80;99.90;;;;;;5146008;27;20231;-39
2021/05/13 13:00:54;;;;;;;2.30;2.10;;;11.80;99.90;;;;;;5145995;27;20444;-38
2021/05/13 13:03:33;;;;;;;3.53;1.97;;;11.80;99.90;;;;;;5144226;27;20199;-37
2021/05/13 13:06:11;;;;;;;2.50;2.30;;;11.80;99.90;;;;;;5147224;27;21231;-36
2021/05/13 13:08:43;;;;;;;3.27;2.97;;;11.80;99.90;;;;;;5146168;27;20482;-37
2021/05/13 13:11:14;;;;;;;2.70;2.50;;;11.70;99.90;;;;;;5146447;27;20489;-37
2021/05/13 13:13:46;;;;;;;3.57;2.53;;;11.90;99.90;;;;;;5146183;27;20196;-38
2021/05/13 13:16:24;;;;;;;2.90;2.55;;;11.90;99.90;;;;;;5147176;27;20517;-36
2021/05/13 13:19:03;;;;;;;2.60;2.40;;;12.00;99.90;;;;;;5145766;27;20248;-37
2021/05/13 13:21:34;;;;;;;3.00;2.43;;;12.00;99.90;;;;;;5140074;27;20221;-37
2021/05/13 13:24:17;;;;;;;3.80;2.50;;;12.10;99.90;;;;;;5144600;27;20474;-37
2021/05/13 13:26:55;;;;;;;2.80;2.60;;;12.20;99.90;;;;;;5147104;27;20484;-38
2021/05/13 13:29:27;;;;;;;3.27;2.63;;;12.30;99.90;;;;;;5130195;27;20504;-36
2021/05/13 13:32:01;;;;;;;3.50;2.77;;;12.30;99.90;;;;;;5146257;27;20449;-39
2021/05/13 13:34:38;;;;;;;3.30;3.00;;;12.40;99.90;;;;;;5139261;27;20444;-35